Main page
METAR-TAF:

METAR-TAF

Airports :

Cornwall Airport Newquay

Newquay Cornwall, England

latitude: 50-26N, longitude: 005-00W, elevation: 119 m

Current weather observation

The report was made 23 minutes ago, at 03:20 UTC
Wind 3 kt from the Northwest, varying between West and North/Northwest
Temperature 14°C
Humidity 100%
Pressure 1021 hPa
Visibility: 3100 m
mist,

METAR: EGHQ 240320Z AUTO 31003KT 260V330 3100 BR BKN002/// 14/14 Q1021 REDZ

Time: 04:43 (03:43 UTC)

Forecast

The report was made 1 hour and 46 minutes ago, at 01:57 UTC
Forecast valid from 24 at 03 UTC to 24 at 12 UTC
Wind 6 kt from the West/Northwest
Visibility 10 km or more
Broken clouds at a height of 1600 ft
Temporary
from 24 at 03 UTC to 24 at 12 UTC
Visibility: 6000 m
Broken clouds at a height of 800 ft
Probability 30% :
Temporary
from 24 at 03 UTC to 24 at 08 UTC
Visibility: 2000 m
Broken clouds at a height of 300 ft
mist,

TAF: EGHQ 240157Z 2403/2412 30006KT 9999 BKN016 TEMPO 2403/2412 6000 BKN008 PROB30 TEMPO 2403/2408 2000 BR BKN003

Weather observations and forecasts of more than 4000 airports (METAR and TAF reports).

The available stations are represented by yellow and red dots on the map.

Hover mouse over dot to see the name of the station.

Then click to see weather observations and forecasts.

To change the map : click on the green buttons with a black cross to zoom in, on the green button with a dash to zoom out, or on the green arrows for adjacent maps.


METAR-TAF: